createdAt,value
2022-12-13T00:01:55.857Z,-0.25
2022-12-13T00:04:25.707Z,-0.25
2022-12-13T00:06:54.907Z,-0.27
2022-12-13T00:09:24.481Z,-0.26
2022-12-13T00:11:54.703Z,-0.28
2022-12-13T00:14:23.018Z,-0.28
2022-12-13T00:16:51.709Z,-0.31
2022-12-13T00:19:21.325Z,-0.28
2022-12-13T00:21:49.495Z,-0.32
2022-12-13T00:24:18.083Z,-0.28
2022-12-13T00:26:46.908Z,-0.32
2022-12-13T00:29:15.400Z,-0.35
2022-12-13T00:31:58.666Z,-0.36
2022-12-13T00:34:29.341Z,-0.38
2022-12-13T00:43:29.649Z,-0.51
2022-12-13T00:46:55.277Z,-0.57
2022-12-13T00:53:18.539Z,-0.67
2022-12-13T00:55:48.118Z,-0.69
2022-12-13T00:58:17.066Z,-0.70
2022-12-13T01:00:46.495Z,-0.70
2022-12-13T01:03:25.333Z,-0.69
2022-12-13T01:08:46.452Z,-0.74
2022-12-13T01:16:07.833Z,-0.80
2022-12-13T01:19:10.238Z,-0.86
2022-12-13T01:22:19.694Z,-0.93
2022-12-13T01:25:04.666Z,-0.93
2022-12-13T01:31:28.772Z,-1.01
2022-12-13T01:34:45.571Z,-1.10
2022-12-13T01:37:32.189Z,-1.14
2022-12-13T01:40:08.909Z,-1.17
2022-12-13T01:42:45.039Z,-1.16
2022-12-13T01:45:24.594Z,-1.20
2022-12-13T01:47:58.511Z,-1.18
2022-12-13T01:50:32.936Z,-1.14
2022-12-13T01:53:02.035Z,-1.11
2022-12-13T01:55:41.494Z,-1.13
2022-12-13T01:58:11.351Z,-1.11
2022-12-13T02:00:41.006Z,-1.09
2022-12-13T02:03:21.792Z,-1.08
2022-12-13T02:05:57.299Z,-1.06
2022-12-13T02:08:30.003Z,-1.07
2022-12-13T02:10:59.913Z,-1.05
2022-12-13T02:13:28.435Z,-1.05
2022-12-13T02:16:06.521Z,-1.05
2022-12-13T02:18:52.462Z,-1.06
2022-12-13T02:21:27.923Z,-1.08
2022-12-13T02:24:20.246Z,-1.10
2022-12-13T02:27:08.521Z,-1.12
2022-12-13T02:30:03.885Z,-1.11
2022-12-13T02:32:40.688Z,-1.17
2022-12-13T02:35:13.441Z,-1.23
2022-12-13T02:37:52.553Z,-1.36
2022-12-13T02:40:27.641Z,-1.40
2022-12-13T02:43:02.280Z,-1.41
2022-12-13T02:45:35.726Z,-1.45
2022-12-13T02:48:09.422Z,-1.47
2022-12-13T02:50:40.179Z,-1.48
2022-12-13T02:53:10.693Z,-1.53
2022-12-13T02:55:40.928Z,-1.59
2022-12-13T02:58:14.015Z,-1.62
2022-12-13T03:00:55.121Z,-1.64
2022-12-13T03:03:38.263Z,-1.70
2022-12-13T03:06:34.754Z,-1.74
2022-12-13T03:09:21.166Z,-1.78
2022-12-13T03:12:32.647Z,-1.80
2022-12-13T03:15:23.411Z,-1.85
2022-12-13T03:17:59.248Z,-1.91
2022-12-13T03:20:33.010Z,-1.95
2022-12-13T03:23:01.791Z,-2.01
2022-12-13T03:26:17.402Z,-2.05
2022-12-13T03:29:23.284Z,-2.08
2022-12-13T03:34:44.597Z,-2.15
2022-12-13T03:45:45.179Z,-2.28
2022-12-13T03:48:22.377Z,-2.34
2022-12-13T04:37:54.713Z,-2.72
2022-12-13T04:40:25.237Z,-2.78
2022-12-13T04:42:54.689Z,-2.81
2022-12-13T04:45:23.979Z,-2.82
2022-12-13T04:47:52.458Z,-2.82
2022-12-13T04:50:21.138Z,-2.81
2022-12-13T04:52:49.745Z,-2.85
2022-12-13T04:55:19.350Z,-2.90
2022-12-13T04:57:47.869Z,-2.95
2022-12-13T05:00:17.109Z,-2.96
2022-12-13T05:02:45.409Z,-2.96
2022-12-13T05:05:15.356Z,-2.97
2022-12-13T05:07:44.051Z,-2.98
2022-12-13T05:10:32.202Z,-3.02
2022-12-13T05:13:03.432Z,-3.03
2022-12-13T05:15:31.883Z,-3.05
2022-12-13T05:18:09.966Z,-3.11
2022-12-13T05:20:39.903Z,-3.18
2022-12-13T05:23:08.660Z,-3.25
2022-12-13T05:25:37.505Z,-3.29
2022-12-13T05:28:27.165Z,-3.31
2022-12-13T05:30:57.483Z,-3.41
2022-12-13T05:33:26.886Z,-3.56
2022-12-13T09:41:19.424Z,-0.07
2022-12-13T09:43:54.628Z,0.10
2022-12-13T09:46:34.812Z,0.07
2022-12-13T09:49:25.610Z,0.24
2022-12-13T09:52:10.656Z,0.40
2022-12-13T09:54:48.229Z,0.58
2022-12-13T09:57:32.204Z,0.73
2022-12-13T10:00:04.082Z,0.83
2022-12-13T10:02:44.285Z,0.85
2022-12-13T10:05:22.702Z,0.99
2022-12-13T10:07:55.696Z,1.11
2022-12-13T10:10:24.877Z,1.20
2022-12-13T10:12:59.817Z,1.30
2022-12-13T10:15:29.546Z,1.41
2022-12-13T10:17:59.270Z,1.49
2022-12-13T10:20:29.995Z,1.60
2022-12-13T10:25:54.836Z,1.76
2022-12-13T10:28:34.737Z,1.92
2022-12-13T10:31:04.629Z,1.88
2022-12-13T10:33:34.855Z,1.89
2022-12-13T10:36:07.285Z,1.91
2022-12-13T10:38:41.985Z,1.93
2022-12-13T10:41:28.574Z,1.95
2022-12-13T10:44:22.584Z,1.96
2022-12-13T10:46:54.870Z,1.91
2022-12-13T10:49:25.976Z,1.83
2022-12-13T10:51:55.014Z,1.79
2022-12-13T10:54:29.701Z,1.89
2022-12-13T10:57:12.311Z,2.00
2022-12-13T10:59:41.910Z,2.04
2022-12-13T11:02:31.371Z,2.00
2022-12-13T11:05:03.467Z,1.97
2022-12-13T11:07:35.255Z,1.95
2022-12-13T11:10:20.108Z,1.97
2022-12-13T11:12:52.939Z,2.12
2022-12-13T11:15:26.650Z,2.21
2022-12-13T11:17:58.672Z,2.26
2022-12-13T11:20:30.075Z,2.30
2022-12-13T11:23:04.932Z,2.38
2022-12-13T11:25:41.276Z,2.43
2022-12-13T11:28:37.256Z,2.49
2022-12-13T11:31:15.739Z,2.65
2022-12-13T11:33:56.059Z,2.77
2022-12-13T11:36:36.909Z,2.86
2022-12-13T11:39:18.574Z,2.88
2022-12-13T11:41:55.332Z,2.83
2022-12-13T11:44:30.897Z,2.85
2022-12-13T11:47:02.103Z,2.87
2022-12-13T11:49:39.943Z,2.72
2022-12-13T11:52:16.364Z,2.80
2022-12-13T11:54:50.983Z,2.66
2022-12-13T11:57:31.487Z,2.65
2022-12-13T12:00:13.216Z,2.68
2022-12-13T12:02:50.781Z,2.74
2022-12-13T12:05:28.457Z,2.82
2022-12-13T12:08:31.792Z,2.80
2022-12-13T12:10:52.636Z,2.90
2022-12-13T12:13:24.815Z,2.97
2022-12-13T12:16:05.869Z,3.03
2022-12-13T12:18:37.013Z,3.07
2022-12-13T12:21:18.430Z,3.00
2022-12-13T12:23:59.708Z,3.08
2022-12-13T12:26:34.248Z,2.91
2022-12-13T12:29:21.418Z,2.95
2022-12-13T12:32:03.005Z,3.03
2022-12-13T12:34:46.518Z,3.03
2022-12-13T12:37:26.378Z,3.13
2022-12-13T12:40:08.450Z,3.29
2022-12-13T12:43:14.374Z,3.32
2022-12-13T12:46:04.348Z,3.42
2022-12-13T12:49:02.324Z,3.40
2022-12-13T12:51:42.795Z,3.45
2022-12-13T12:54:32.340Z,3.46
2022-12-13T12:57:07.622Z,3.46
2022-12-13T12:59:47.466Z,3.45
2022-12-13T13:02:23.591Z,3.45
2022-12-13T13:05:00.158Z,3.41
2022-12-13T13:07:40.086Z,3.40
2022-12-13T13:10:16.691Z,3.36
2022-12-13T13:13:11.343Z,3.30
2022-12-13T13:15:56.709Z,3.28
2022-12-13T13:18:51.322Z,3.26
2022-12-13T13:21:28.490Z,3.26
2022-12-13T13:24:14.283Z,3.23
2022-12-13T13:26:45.164Z,3.21
2022-12-13T13:29:31.343Z,3.21
2022-12-13T13:32:02.578Z,3.23
2022-12-13T13:34:36.460Z,3.18
2022-12-13T13:37:06.633Z,3.11
2022-12-13T13:39:55.819Z,3.03
2022-12-13T13:42:25.994Z,3.01
2022-12-13T13:45:23.417Z,2.92
2022-12-13T13:48:14.509Z,2.81
2022-12-13T13:51:25.892Z,2.64
2022-12-13T13:54:25.410Z,2.50
2022-12-13T13:58:00.372Z,2.33
2022-12-13T14:00:23.824Z,2.16
2022-12-13T14:03:34.262Z,2.13
2022-12-13T14:06:46.112Z,2.13
2022-12-13T14:09:57.382Z,2.11
2022-12-13T14:12:56.511Z,2.02
2022-12-13T14:15:50.057Z,1.89
2022-12-13T14:18:58.872Z,1.79
2022-12-13T14:21:35.544Z,1.73
2022-12-13T14:24:15.117Z,1.66
2022-12-13T14:27:00.678Z,1.53
2022-12-13T14:29:32.540Z,1.44
2022-12-13T14:32:03.020Z,1.37
2022-12-13T14:34:33.858Z,1.36
2022-12-13T14:37:04.763Z,1.33
2022-12-13T14:39:34.781Z,1.24
2022-12-13T14:42:23.056Z,1.15
2022-12-13T14:44:51.692Z,1.09
2022-12-13T14:47:23.352Z,1.03
2022-12-13T14:49:55.836Z,1.00
2022-12-13T14:52:27.831Z,0.97
2022-12-13T14:54:59.437Z,0.86
2022-12-13T14:57:29.811Z,0.68
2022-12-13T15:40:26.571Z,-0.41
2022-12-13T15:42:55.347Z,-0.49
2022-12-13T15:45:25.592Z,-0.54
2022-12-13T15:47:55.291Z,-0.60
2022-12-13T15:50:34.135Z,-0.66
2022-12-13T15:53:04.658Z,-0.64
2022-12-13T15:55:37.456Z,-0.65
2022-12-13T15:58:26.636Z,-0.66
2022-12-13T16:00:55.359Z,-0.74
2022-12-13T16:03:26.882Z,-0.74
2022-12-13T16:05:57.158Z,-0.78
2022-12-13T16:08:30.214Z,-0.96
2022-12-13T16:11:00.487Z,-1.05
2022-12-13T16:13:31.233Z,-1.03
2022-12-13T16:16:09.454Z,-1.02
2022-12-13T16:18:46.920Z,-1.11
2022-12-13T16:21:15.408Z,-1.14
2022-12-13T16:23:48.475Z,-1.16
2022-12-13T16:26:25.630Z,-1.12
2022-12-13T16:28:54.412Z,-1.12
2022-12-13T16:31:25.117Z,-1.22
2022-12-13T16:33:53.626Z,-1.40
2022-12-13T16:36:21.907Z,-1.47
2022-12-13T16:38:50.759Z,-1.50
2022-12-13T16:41:19.246Z,-1.49
2022-12-13T16:43:56.245Z,-1.51
2022-12-13T16:47:17.353Z,-1.53
2022-12-13T16:49:21.295Z,-1.55
2022-12-13T16:51:52.707Z,-1.57
2022-12-13T16:54:22.869Z,-1.58
2022-12-13T16:56:52.550Z,-1.63
2022-12-13T16:59:23.785Z,-1.65
2022-12-13T17:01:53.185Z,-1.75
2022-12-13T17:04:23.411Z,-1.78
2022-12-13T17:06:55.209Z,-1.79
2022-12-13T17:09:25.569Z,-1.78
2022-12-13T17:11:54.195Z,-1.82
2022-12-13T17:14:24.004Z,-1.85
2022-12-13T17:16:52.289Z,-1.90
2022-12-13T17:19:20.750Z,-1.89
2022-12-13T17:21:49.359Z,-1.87
2022-12-13T17:24:17.959Z,-1.84
2022-12-13T17:26:53.908Z,-1.81
2022-12-13T17:29:26.012Z,-1.79
2022-12-13T17:31:54.686Z,-1.77
2022-12-13T17:34:23.194Z,-1.82
2022-12-13T17:37:03.210Z,-2.04
2022-12-13T17:43:47.342Z,-2.36
2022-12-13T18:37:13.332Z,-2.70
2022-12-13T18:39:43.911Z,-2.75
2022-12-13T18:42:23.429Z,-2.76
2022-12-13T18:44:54.672Z,-2.79
2022-12-13T18:47:23.379Z,-2.81
2022-12-13T18:49:54.853Z,-2.83
2022-12-13T18:52:27.828Z,-2.85
2022-12-13T18:54:56.413Z,-2.91
2022-12-13T18:57:24.882Z,-2.91
2022-12-13T18:59:54.060Z,-2.92
2022-12-13T19:02:31.032Z,-2.91
2022-12-13T19:05:05.811Z,-2.92
2022-12-13T19:07:35.941Z,-2.94
2022-12-13T19:10:05.104Z,-2.93
2022-12-13T19:12:35.030Z,-2.92
2022-12-13T19:15:05.173Z,-2.94
2022-12-13T19:17:36.693Z,-2.96
2022-12-13T19:20:06.975Z,-2.96
2022-12-13T19:22:39.540Z,-2.98
2022-12-13T19:25:09.135Z,-3.01
2022-12-13T19:27:37.829Z,-3.05
2022-12-13T19:30:07.333Z,-3.06
2022-12-13T19:32:39.452Z,-3.09
2022-12-13T19:35:21.816Z,-3.10
2022-12-13T19:38:02.615Z,-3.14
2022-12-13T19:40:45.808Z,-3.17
2022-12-13T19:43:25.991Z,-3.22
2022-12-13T19:46:06.163Z,-3.23
2022-12-13T19:48:43.364Z,-3.25
2022-12-13T19:51:32.065Z,-3.32
2022-12-13T19:54:13.124Z,-3.33
2022-12-13T19:56:47.522Z,-3.36
2022-12-13T19:59:16.232Z,-3.37
2022-12-13T20:01:50.805Z,-3.38
2022-12-13T20:04:19.999Z,-3.38
2022-12-13T20:06:48.734Z,-3.40
2022-12-13T20:09:18.883Z,-3.39
2022-12-13T20:11:47.757Z,-3.43
2022-12-13T20:14:16.276Z,-3.40
2022-12-13T20:16:44.859Z,-3.40
2022-12-13T20:19:15.717Z,-3.39
2022-12-13T20:21:52.255Z,-3.39
2022-12-13T20:24:25.382Z,-3.38
2022-12-13T20:26:57.320Z,-3.38
2022-12-13T20:29:29.656Z,-3.39
2022-12-13T20:31:58.777Z,-3.38
2022-12-13T20:34:27.242Z,-3.35
2022-12-13T21:37:35.407Z,-3.52
2022-12-13T21:40:06.372Z,-3.51
2022-12-13T21:42:35.011Z,-3.50
2022-12-13T21:45:03.656Z,-3.51
2022-12-13T21:47:31.889Z,-3.50
2022-12-13T21:50:00.645Z,-3.48
2022-12-13T21:52:29.583Z,-3.45
2022-12-13T21:55:15.096Z,-3.47
2022-12-13T21:58:08.201Z,-3.49
2022-12-13T22:00:55.031Z,-3.52
2022-12-13T22:03:25.534Z,-3.54
2022-12-13T22:05:53.922Z,-3.53
2022-12-13T22:08:30.286Z,-3.52
2022-12-13T22:11:21.623Z,-3.54
2022-12-13T22:13:54.501Z,-3.54
2022-12-13T22:16:23.157Z,-3.54
2022-12-13T22:18:55.150Z,-3.52
2022-12-13T22:21:24.322Z,-3.53
2022-12-13T22:23:54.436Z,-3.52
2022-12-13T22:26:23.750Z,-3.52
2022-12-13T22:28:54.798Z,-3.51
2022-12-13T22:31:29.531Z,-3.54
2022-12-13T22:34:03.127Z,-3.59
2022-12-13T22:36:31.839Z,-3.58
2022-12-13T22:39:01.737Z,-3.58
2022-12-13T22:41:31.872Z,-3.56
2022-12-13T22:44:07.105Z,-3.54
2022-12-13T22:46:38.074Z,-3.50
2022-12-13T22:49:07.232Z,-3.46
2022-12-13T22:51:42.017Z,-3.43
2022-12-13T22:54:29.484Z,-3.39
2022-12-13T22:57:10.599Z,-3.37
2022-12-13T22:59:48.138Z,-3.35
2022-12-13T23:02:21.456Z,-3.31
2022-12-13T23:04:50.054Z,-3.29
2022-12-13T23:07:18.311Z,-3.26
2022-12-13T23:09:46.693Z,-3.22
2022-12-13T23:12:32.597Z,-3.19
2022-12-13T23:15:02.196Z,-3.14
2022-12-13T23:17:31.220Z,-3.14
2022-12-13T23:19:59.542Z,-3.12
2022-12-13T23:22:27.926Z,-3.10
2022-12-13T23:24:56.545Z,-3.06
2022-12-13T23:27:25.451Z,-3.02
2022-12-13T23:29:53.570Z,-2.98
2022-12-13T23:32:23.420Z,-2.96
2022-12-13T23:34:52.414Z,-2.92
2022-12-13T23:37:20.808Z,-2.90
2022-12-13T23:39:51.470Z,-2.88
2022-12-13T23:42:21.055Z,-2.85
2022-12-13T23:44:49.575Z,-2.84
2022-12-13T23:47:19.645Z,-2.81
2022-12-13T23:49:49.401Z,-2.78
2022-12-13T23:52:17.963Z,-2.78
2022-12-13T23:54:46.363Z,-2.74
2022-12-13T23:57:15.131Z,-2.71
2022-12-13T23:59:43.720Z,-2.69
